createdAt,value
2023-01-31T00:01:35.109Z,99206.25
2023-01-31T00:03:37.409Z,99202.75
2023-01-31T00:05:39.446Z,99208.38
2023-01-31T00:07:41.595Z,99204.81
2023-01-31T00:09:43.241Z,99210.47
2023-01-31T00:11:44.739Z,99203.34
2023-01-31T00:13:46.999Z,99205.47
2023-01-31T00:15:48.588Z,99206.53
2023-01-31T00:17:50.310Z,99207.56
2023-01-31T00:19:52.038Z,99208.81
2023-01-31T00:21:53.577Z,99209.03
2023-01-31T00:24:05.626Z,99205.50
2023-01-31T00:26:08.646Z,99204.03
2023-01-31T00:28:10.326Z,99222.41
2023-01-31T00:30:12.247Z,99218.00
2023-01-31T00:32:14.083Z,99214.47
2023-01-31T00:34:15.873Z,99233.84
2023-01-31T00:36:21.880Z,99234.91
2023-01-31T00:38:23.373Z,99244.50
2023-01-31T00:40:27.086Z,99232.84
2023-01-31T00:42:28.582Z,99226.78
2023-01-31T00:44:30.107Z,99230.34
2023-01-31T00:46:32.821Z,99226.78
2023-01-31T00:48:35.262Z,99235.13
2023-01-31T00:50:37.187Z,99239.94
2023-01-31T00:52:39.449Z,99236.63
2023-01-31T00:54:43.063Z,99236.81
2023-01-31T00:56:45.288Z,99245.16
2023-01-31T00:58:46.861Z,99241.84
2023-01-31T01:00:51.718Z,99238.28
2023-01-31T01:02:54.751Z,99245.56
2023-01-31T01:04:57.730Z,99241.19
2023-01-31T01:06:59.409Z,99243.28
2023-01-31T01:09:01.175Z,99237.88
2023-01-31T01:11:29.891Z,99231.00
2023-01-31T01:13:32.024Z,99236.41
2023-01-31T01:15:38.012Z,99235.78
2023-01-31T01:17:39.586Z,99241.22
2023-01-31T01:19:44.077Z,99242.25
2023-01-31T01:21:45.808Z,99237.88
2023-01-31T01:23:48.670Z,99252.47
2023-01-31T01:25:50.256Z,99252.69
2023-01-31T01:27:51.981Z,99249.34
2023-01-31T01:29:53.602Z,99259.34
2023-01-31T01:31:55.222Z,99252.88
2023-01-31T01:34:08.704Z,99250.59
2023-01-31T01:36:17.349Z,99251.63
2023-01-31T01:38:21.218Z,99251.03
2023-01-31T01:40:23.718Z,99250.19
2023-01-31T01:42:26.445Z,99246.84
2023-01-31T01:44:51.981Z,99252.47
2023-01-31T01:46:53.853Z,99245.59
2023-01-31T01:49:02.768Z,99262.06
2023-01-31T01:51:06.772Z,99256.88
2023-01-31T01:53:14.215Z,99256.44
2023-01-31T01:55:37.970Z,99261.22
2023-01-31T01:57:44.770Z,99263.94
2023-01-31T01:59:54.969Z,99263.31
2023-01-31T02:01:59.029Z,99258.94
2023-01-31T02:04:07.571Z,99268.91
2023-01-31T02:06:09.502Z,99261.63
2023-01-31T02:08:13.058Z,99258.50
2023-01-31T02:10:22.864Z,99266.00
2023-01-31T02:12:25.180Z,99263.28
2023-01-31T02:14:27.332Z,99263.50
2023-01-31T02:16:29.930Z,99260.81
2023-01-31T02:18:41.222Z,99274.75
2023-01-31T02:21:05.816Z,99274.94
2023-01-31T02:23:24.774Z,99281.59
2023-01-31T02:25:35.433Z,99272.84
2023-01-31T02:27:49.930Z,99280.78
2023-01-31T02:30:13.201Z,99273.91
2023-01-31T02:32:50.247Z,99267.84
2023-01-31T02:35:22.972Z,99263.91
2023-01-31T02:37:52.965Z,99276.81
2023-01-31T02:40:21.759Z,99287.63
2023-01-31T02:42:53.210Z,99279.72
2023-01-31T02:45:21.855Z,99285.56
2023-01-31T02:47:30.548Z,99279.31
2023-01-31T02:49:41.541Z,99285.97
2023-01-31T02:52:12.768Z,99296.56
2023-01-31T02:54:21.338Z,99294.91
2023-01-31T02:56:35.028Z,99294.91
2023-01-31T02:58:39.448Z,99292.41
2023-01-31T03:00:45.698Z,99299.69
2023-01-31T03:02:47.778Z,99304.28
2023-01-31T03:04:49.431Z,99310.50
2023-01-31T03:07:00.068Z,99303.44
2023-01-31T03:09:09.811Z,99302.59
2023-01-31T03:11:11.771Z,99300.75
2023-01-31T03:13:28.408Z,99309.25
2023-01-31T03:15:54.524Z,99322.56
2023-01-31T03:18:15.136Z,99319.47
2023-01-31T03:20:29.417Z,99326.75
2023-01-31T03:22:38.713Z,99325.91
2023-01-31T03:24:42.574Z,99330.47
2023-01-31T03:26:44.626Z,99334.84
2023-01-31T03:28:48.263Z,99350.06
2023-01-31T03:31:00.028Z,99349.00
2023-01-31T03:33:10.514Z,99342.75
2023-01-31T03:35:13.866Z,99340.91
2023-01-31T03:37:55.558Z,99353.41
2023-01-31T03:40:05.623Z,99350.88
2023-01-31T03:42:29.112Z,99354.25
2023-01-31T03:44:57.039Z,99357.97
2023-01-31T03:47:15.994Z,99363.16
2023-01-31T03:49:21.690Z,99368.41
2023-01-31T03:51:27.621Z,99369.03
2023-01-31T03:53:44.146Z,99362.59
2023-01-31T03:55:59.272Z,99373.41
2023-01-31T03:58:03.335Z,99366.75
2023-01-31T04:00:09.339Z,99366.09
2023-01-31T04:02:17.677Z,99370.28
2023-01-31T04:04:32.932Z,99373.81
2023-01-31T04:06:35.817Z,99381.75
2023-01-31T04:08:38.068Z,99379.69
2023-01-31T04:10:42.906Z,99379.69
2023-01-31T04:12:45.392Z,99387.59
2023-01-31T04:14:46.929Z,99384.03
2023-01-31T04:16:48.613Z,99380.31
2023-01-31T04:18:51.692Z,99382.78
2023-01-31T04:20:53.348Z,99380.94
2023-01-31T04:22:55.002Z,99390.72
2023-01-31T04:24:59.253Z,99392.59
2023-01-31T04:27:00.800Z,99384.25
2023-01-31T04:29:02.808Z,99389.50
2023-01-31T04:31:04.783Z,99385.72
2023-01-31T04:33:06.525Z,99395.53
2023-01-31T04:35:11.465Z,99380.13
2023-01-31T04:37:13.083Z,99382.63
2023-01-31T04:39:16.477Z,99383.47
2023-01-31T04:41:18.169Z,99383.47
2023-01-31T04:43:19.674Z,99382.22
2023-01-31T04:45:21.627Z,99387.41
2023-01-31T04:47:23.490Z,99387.41
2023-01-31T04:49:26.268Z,99364.72
2023-01-31T04:51:33.154Z,99375.56
2023-01-31T04:53:37.675Z,99387.22
2023-01-31T04:55:39.489Z,99380.56
2023-01-31T04:57:41.272Z,99371.44
2023-01-31T04:59:44.080Z,99369.53
2023-01-31T05:01:45.799Z,99375.59
2023-01-31T05:03:47.628Z,99377.25
2023-01-31T05:05:50.298Z,99379.94
2023-01-31T05:07:51.838Z,99372.66
2023-01-31T05:09:53.964Z,99379.78
2023-01-31T05:11:55.619Z,99369.75
2023-01-31T05:13:57.117Z,99372.25
2023-01-31T05:15:58.936Z,99371.44
2023-01-31T05:18:04.560Z,99371.22
2023-01-31T05:20:09.855Z,99372.03
2023-01-31T05:22:11.557Z,99368.50
2023-01-31T05:24:15.226Z,99370.19
2023-01-31T05:26:17.017Z,99363.75
2023-01-31T05:28:18.819Z,99365.38
2023-01-31T05:30:20.789Z,99366.00
2023-01-31T05:32:22.537Z,99366.00
2023-01-31T05:34:25.610Z,99356.00
2023-01-31T05:36:27.328Z,99356.84
2023-01-31T05:38:29.031Z,99360.19
2023-01-31T05:40:31.172Z,99364.75
2023-01-31T05:42:32.829Z,99367.28
2023-01-31T05:44:34.604Z,99369.16
2023-01-31T05:46:36.868Z,99362.72
2023-01-31T05:48:40.051Z,99376.03
2023-01-31T05:50:41.838Z,99368.94
2023-01-31T05:52:43.940Z,99372.47
2023-01-31T05:54:45.745Z,99379.78
2023-01-31T05:56:47.253Z,99382.47
2023-01-31T05:58:50.538Z,99387.72
2023-01-31T06:00:56.665Z,99385.00
2023-01-31T06:02:59.902Z,99386.66
2023-01-31T06:05:05.892Z,99388.56
2023-01-31T06:07:09.347Z,99380.22
2023-01-31T06:09:11.592Z,99386.47
2023-01-31T06:11:18.597Z,99389.19
2023-01-31T06:13:20.099Z,99385.41
2023-01-31T06:15:22.007Z,99393.53
2023-01-31T06:17:24.116Z,99388.13
2023-01-31T06:19:31.976Z,99395.22
2023-01-31T06:21:33.690Z,99392.28
2023-01-31T06:23:35.359Z,99398.75
2023-01-31T06:25:37.092Z,99387.72
2023-01-31T06:27:38.653Z,99388.75
2023-01-31T06:29:40.128Z,99386.69
2023-01-31T06:31:45.582Z,99387.72
2023-01-31T06:33:50.149Z,99394.81
2023-01-31T06:35:51.935Z,99393.97
2023-01-31T06:37:55.713Z,99393.13
2023-01-31T06:39:57.803Z,99386.06
2023-01-31T06:41:59.566Z,99390.63
2023-01-31T06:44:01.382Z,99391.03
2023-01-31T06:46:02.968Z,99401.03
2023-01-31T06:48:05.023Z,99396.03
2023-01-31T06:50:06.852Z,99402.50
2023-01-31T06:52:08.655Z,99399.34
2023-01-31T06:54:10.352Z,99393.94
2023-01-31T06:56:11.947Z,99393.31
2023-01-31T06:58:18.466Z,99405.19
2023-01-31T07:00:22.699Z,99399.97
2023-01-31T07:02:24.710Z,99399.97
2023-01-31T07:04:26.378Z,99401.00
2023-01-31T07:06:28.045Z,99410.19
2023-01-31T07:08:34.877Z,99421.00
2023-01-31T07:10:37.833Z,99413.91
2023-01-31T07:12:40.361Z,99418.50
2023-01-31T07:14:42.640Z,99418.72
2023-01-31T07:16:44.384Z,99418.09
2023-01-31T07:18:46.041Z,99413.69
2023-01-31T07:20:47.613Z,99418.50
2023-01-31T07:23:02.496Z,99419.72
2023-01-31T07:25:04.422Z,99425.97
2023-01-31T07:27:06.073Z,99424.31
2023-01-31T07:29:07.993Z,99419.91
2023-01-31T07:31:13.231Z,99428.03
2023-01-31T07:33:14.913Z,99417.19
2023-01-31T07:35:16.647Z,99418.03
2023-01-31T07:37:18.105Z,99414.09
2023-01-31T07:39:21.217Z,99412.22
2023-01-31T07:41:24.379Z,99419.31
2023-01-31T07:43:26.745Z,99426.22
2023-01-31T07:45:31.071Z,99417.03
2023-01-31T07:47:32.517Z,99412.25
2023-01-31T07:49:34.321Z,99424.75
2023-01-31T07:51:38.949Z,99420.81
2023-01-31T07:53:42.444Z,99430.59
2023-01-31T07:55:50.206Z,99423.94
2023-01-31T07:57:51.823Z,99431.00
2023-01-31T07:59:53.285Z,99434.38
2023-01-31T08:02:13.632Z,99426.03
2023-01-31T08:04:21.560Z,99428.53
2023-01-31T08:06:23.861Z,99430.22
2023-01-31T08:08:25.525Z,99426.47
2023-01-31T08:10:29.945Z,99430.84
2023-01-31T08:12:31.811Z,99433.13
2023-01-31T08:14:33.865Z,99435.63
2023-01-31T08:16:36.647Z,99446.47
2023-01-31T08:18:39.301Z,99446.06
2023-01-31T08:20:41.451Z,99438.78
2023-01-31T08:22:42.981Z,99433.81
2023-01-31T08:24:44.640Z,99440.69
2023-01-31T08:26:46.702Z,99439.22
2023-01-31T08:28:51.153Z,99437.13
2023-01-31T08:31:07.473Z,99438.59
2023-01-31T08:33:11.965Z,99443.38
2023-01-31T08:35:13.778Z,99449.66
2023-01-31T08:37:16.759Z,99451.13
2023-01-31T08:39:19.931Z,99454.25
2023-01-31T08:41:23.383Z,99447.59
2023-01-31T08:43:25.086Z,99456.34
2023-01-31T08:45:29.041Z,99448.00
2023-01-31T08:47:30.647Z,99441.53
2023-01-31T08:49:36.347Z,99438.63
2023-01-31T08:51:37.961Z,99439.28
2023-01-31T08:53:41.677Z,99434.47
2023-01-31T08:55:43.397Z,99438.63
2023-01-31T08:57:58.932Z,99444.06
2023-01-31T09:00:01.796Z,99437.38
2023-01-31T09:02:03.359Z,99439.88
2023-01-31T09:04:05.302Z,99445.13
2023-01-31T09:06:10.668Z,99439.47
2023-01-31T09:08:12.584Z,99442.81
2023-01-31T09:10:14.408Z,99439.91
2023-01-31T09:12:16.038Z,99448.66
2023-01-31T09:14:17.714Z,99443.84
2023-01-31T09:16:20.252Z,99445.53
2023-01-31T09:18:21.771Z,99434.47
2023-01-31T09:20:23.643Z,99444.06
2023-01-31T09:22:25.457Z,99439.88
2023-01-31T09:24:27.216Z,99438.63
2023-01-31T09:26:28.809Z,99433.00
2023-01-31T09:28:31.073Z,99439.88
2023-01-31T09:30:33.390Z,99432.59
2023-01-31T09:32:37.198Z,99432.16
2023-01-31T09:34:38.855Z,99424.66
2023-01-31T09:36:40.441Z,99434.47
2023-01-31T09:38:42.155Z,99438.03
2023-01-31T09:40:43.834Z,99444.69
2023-01-31T09:42:51.331Z,99440.94
2023-01-31T09:45:00.206Z,99446.97
2023-01-31T09:47:28.511Z,99441.16
2023-01-31T09:49:38.209Z,99446.56
2023-01-31T09:51:40.368Z,99444.47
2023-01-31T09:53:44.549Z,99445.09
2023-01-31T09:56:14.511Z,99434.03
2023-01-31T09:58:39.200Z,99425.69
2023-01-31T10:00:50.448Z,99427.16
2023-01-31T10:03:01.438Z,99426.31
2023-01-31T10:05:14.689Z,99428.59
2023-01-31T10:07:27.141Z,99428.38
2023-01-31T10:09:47.485Z,99418.13
2023-01-31T10:11:54.649Z,99417.09
2023-01-31T10:14:05.558Z,99413.13
2023-01-31T10:16:52.626Z,99415.66
2023-01-31T10:19:12.960Z,99401.88
2023-01-31T10:21:23.027Z,99384.94
2023-01-31T10:23:37.125Z,99395.59
2023-01-31T10:28:43.204Z,99403.94
2023-01-31T10:30:53.120Z,99400.16
2023-01-31T10:33:03.905Z,99401.84
2023-01-31T10:35:25.166Z,99396.00
2023-01-31T10:37:40.089Z,99384.06
2023-01-31T10:39:50.033Z,99383.63
2023-01-31T10:42:06.463Z,99382.59
2023-01-31T10:44:34.094Z,99369.66
2023-01-31T10:46:35.930Z,99370.03
2023-01-31T10:48:39.088Z,99357.09
2023-01-31T10:50:56.777Z,99362.31
2023-01-31T10:53:04.173Z,99378.16
2023-01-31T10:55:33.436Z,99367.06
2023-01-31T10:57:35.493Z,99368.53
2023-01-31T10:59:42.820Z,99359.97
2023-01-31T11:01:44.452Z,99353.25
2023-01-31T11:03:52.678Z,99363.69
2023-01-31T11:05:56.978Z,99355.97
2023-01-31T11:08:29.069Z,99344.06
2023-01-31T11:10:32.720Z,99336.09
2023-01-31T11:12:52.013Z,99329.16
2023-01-31T11:15:14.469Z,99335.19
2023-01-31T11:17:21.184Z,99329.69
2023-01-31T11:19:28.367Z,99338.66
2023-01-31T11:21:33.495Z,99325.00
2023-01-31T11:23:36.370Z,99310.31
2023-01-31T11:25:38.236Z,99312.78
2023-01-31T11:27:42.710Z,99308.56
2023-01-31T11:29:50.887Z,99312.88
2023-01-31T11:31:53.953Z,99315.31
2023-01-31T11:34:01.429Z,99326.59
2023-01-31T11:36:15.008Z,99312.56
2023-01-31T11:38:26.602Z,99300.16
2023-01-31T11:40:34.189Z,99297.69
2023-01-31T11:42:51.369Z,99294.13
2023-01-31T11:45:00.646Z,99294.72
2023-01-31T11:47:05.466Z,99293.69
2023-01-31T11:49:20.133Z,99290.34
2023-01-31T11:51:31.539Z,99295.78
2023-01-31T11:53:45.137Z,99291.63
2023-01-31T11:55:49.379Z,99298.97
2023-01-31T11:57:58.023Z,99274.94
2023-01-31T12:00:02.147Z,99278.69
2023-01-31T12:02:26.380Z,99270.97
2023-01-31T12:04:41.054Z,99267.88
2023-01-31T12:06:57.791Z,99271.06
2023-01-31T12:09:00.901Z,99272.94
2023-01-31T12:11:07.015Z,99273.38
2023-01-31T12:13:19.692Z,99280.09
2023-01-31T12:15:21.934Z,99273.81
2023-01-31T12:17:30.932Z,99259.00
2023-01-31T12:19:47.633Z,99257.56
2023-01-31T12:22:07.363Z,99259.09
2023-01-31T12:24:37.335Z,99264.72
2023-01-31T12:27:03.016Z,99261.00
2023-01-31T12:29:35.601Z,99267.72
2023-01-31T12:32:06.113Z,99268.38
2023-01-31T12:34:25.097Z,99252.75
2023-01-31T12:37:04.136Z,99248.34
2023-01-31T12:39:12.321Z,99253.41
2023-01-31T12:41:39.360Z,99269.91
2023-01-31T12:44:28.908Z,99260.31
2023-01-31T12:46:57.713Z,99282.72
2023-01-31T12:49:21.466Z,99278.78
2023-01-31T12:51:37.409Z,99277.13
2023-01-31T12:53:57.647Z,99267.31
2023-01-31T12:56:11.876Z,99270.47
2023-01-31T12:58:23.434Z,99276.09
2023-01-31T13:00:58.043Z,99264.63
2023-01-31T13:03:27.705Z,99265.91
2023-01-31T13:05:46.597Z,99257.97
2023-01-31T13:08:17.810Z,99246.50
2023-01-31T13:10:38.699Z,99249.41
2023-01-31T13:12:41.388Z,99239.38
2023-01-31T13:14:48.469Z,99227.06
2023-01-31T13:16:58.383Z,99200.13
2023-01-31T13:19:04.670Z,99191.16
2023-01-31T13:21:10.116Z,99187.59
2023-01-31T13:23:19.706Z,99176.97
2023-01-31T13:25:39.465Z,99171.97
2023-01-31T13:27:47.035Z,99165.94
2023-01-31T13:30:05.587Z,99141.94
2023-01-31T13:32:18.903Z,99133.78
2023-01-31T13:34:29.344Z,99151.13
2023-01-31T13:36:43.910Z,99157.00
2023-01-31T13:38:46.974Z,99148.84
2023-01-31T13:40:54.970Z,99147.19
2023-01-31T13:43:00.845Z,99152.84
2023-01-31T13:45:07.612Z,99146.59
2023-01-31T13:47:12.338Z,99153.66
2023-01-31T13:49:35.516Z,99162.06
2023-01-31T13:51:42.865Z,99138.66
2023-01-31T13:54:13.938Z,99137.00
2023-01-31T13:56:32.760Z,99132.38
2023-01-31T13:58:36.166Z,99139.94
2023-01-31T14:00:41.206Z,99126.59
2023-01-31T14:03:01.484Z,99118.66
2023-01-31T14:05:41.220Z,99122.44
2023-01-31T14:07:43.031Z,99129.97
2023-01-31T14:09:50.786Z,99119.13
2023-01-31T14:11:55.080Z,99121.59
2023-01-31T14:14:29.417Z,99113.69
2023-01-31T14:16:38.906Z,99107.41
2023-01-31T14:18:43.200Z,99110.34
2023-01-31T14:20:44.876Z,99113.88
2023-01-31T14:23:24.880Z,99106.56
2023-01-31T14:25:42.326Z,99114.97
2023-01-31T14:27:56.105Z,99119.53
2023-01-31T14:30:06.548Z,99113.03
2023-01-31T14:32:16.320Z,99121.00
2023-01-31T14:34:27.823Z,99113.88
2023-01-31T14:36:53.692Z,99103.88
2023-01-31T14:38:58.022Z,99105.97
2023-01-31T14:41:21.504Z,99096.75
2023-01-31T14:43:41.337Z,99088.63
2023-01-31T14:46:07.385Z,99101.38
2023-01-31T14:48:38.905Z,99108.69
2023-01-31T14:50:52.610Z,99097.84
2023-01-31T14:53:07.838Z,99088.63
2023-01-31T14:55:28.175Z,99080.47
2023-01-31T14:57:43.213Z,99076.13
2023-01-31T15:00:05.122Z,99065.25
2023-01-31T15:02:24.399Z,99068.56
2023-01-31T15:04:28.227Z,99076.72
2023-01-31T15:06:43.786Z,99079.44
2023-01-31T15:08:49.521Z,99076.72
2023-01-31T15:11:13.032Z,99089.25
2023-01-31T15:13:54.201Z,99077.75
2023-01-31T15:15:56.311Z,99083.00
2023-01-31T15:18:02.502Z,99084.63
2023-01-31T15:20:24.296Z,99092.78
2023-01-31T15:22:26.625Z,99097.16
2023-01-31T15:24:45.770Z,99099.88
2023-01-31T15:26:49.763Z,99096.94
2023-01-31T15:28:52.807Z,99097.75
2023-01-31T15:31:01.140Z,99105.72
2023-01-31T15:33:18.453Z,99100.47
2023-01-31T15:35:30.789Z,99096.94
2023-01-31T15:37:35.096Z,99103.19
2023-01-31T15:39:47.812Z,99105.91
2023-01-31T15:41:49.499Z,99104.03
2023-01-31T15:43:56.752Z,99108.19
2023-01-31T15:45:58.435Z,99095.66
2023-01-31T15:48:09.205Z,99092.94
2023-01-31T15:50:20.453Z,99086.47
2023-01-31T15:52:22.821Z,99083.53
2023-01-31T15:54:24.606Z,99096.06
2023-01-31T15:56:29.350Z,99090.63
2023-01-31T15:58:31.932Z,99093.34
2023-01-31T16:00:38.118Z,99099.81
2023-01-31T16:02:39.624Z,99103.59
2023-01-31T16:04:41.413Z,99102.53
2023-01-31T16:06:43.125Z,99106.31
2023-01-31T16:08:52.752Z,99109.88
2023-01-31T16:10:55.758Z,99102.53
2023-01-31T16:12:59.171Z,99104.44
2023-01-31T16:15:06.499Z,99115.28
2023-01-31T16:17:08.967Z,99110.66
2023-01-31T16:19:24.220Z,99109.88
2023-01-31T16:21:34.830Z,99109.88
2023-01-31T16:23:37.742Z,99116.09
2023-01-31T16:25:40.536Z,99111.75
2023-01-31T16:27:45.322Z,99110.66
2023-01-31T16:29:51.344Z,99112.56
2023-01-31T16:31:55.381Z,99103.59
2023-01-31T16:33:59.719Z,99109.03
2023-01-31T16:36:15.199Z,99106.31
2023-01-31T16:38:24.826Z,99096.50
2023-01-31T16:40:36.123Z,99109.03
2023-01-31T16:42:39.175Z,99099.22
2023-01-31T16:44:44.133Z,99098.16
2023-01-31T16:46:48.170Z,99098.16
2023-01-31T16:49:21.323Z,99097.75
2023-01-31T16:51:25.180Z,99106.75
2023-01-31T16:53:34.546Z,99095.66
2023-01-31T16:55:36.185Z,99092.75
2023-01-31T16:57:38.790Z,99092.50
2023-01-31T16:59:50.573Z,99097.34
2023-01-31T17:02:15.756Z,99094.63
2023-01-31T17:04:19.724Z,99094.63
2023-01-31T17:06:22.564Z,99096.50
2023-01-31T17:08:25.491Z,99093.78
2023-01-31T17:10:30.013Z,99088.34
2023-01-31T17:12:38.886Z,99087.31
2023-01-31T17:14:40.601Z,99096.28
2023-01-31T17:16:46.960Z,99090.84
2023-01-31T17:18:50.807Z,99081.88
2023-01-31T17:20:55.710Z,99080.00
2023-01-31T17:23:03.321Z,99084.38
2023-01-31T17:25:27.921Z,99092.75
2023-01-31T17:27:29.556Z,99088.16
2023-01-31T17:29:31.164Z,99098.16
2023-01-31T17:31:32.756Z,99095.22
2023-01-31T17:33:34.388Z,99087.06
2023-01-31T17:35:39.000Z,99091.47
2023-01-31T17:37:40.568Z,99094.19
2023-01-31T17:39:42.312Z,99092.31
2023-01-31T17:41:47.089Z,99089.59
2023-01-31T17:43:51.973Z,99092.31
2023-01-31T17:45:53.934Z,99083.91
2023-01-31T17:47:56.011Z,99085.59
2023-01-31T17:50:00.262Z,99080.38
2023-01-31T17:52:02.294Z,99083.91
2023-01-31T17:54:04.217Z,99083.09
2023-01-31T17:56:06.438Z,99084.75
2023-01-31T17:58:13.295Z,99091.84
2023-01-31T18:00:17.763Z,99086.41
2023-01-31T18:02:21.361Z,99085.38
2023-01-31T18:04:22.930Z,99079.69
2023-01-31T18:06:28.552Z,99088.69
2023-01-31T18:08:30.513Z,99089.75
2023-01-31T18:10:32.035Z,99088.91
2023-01-31T18:12:35.539Z,99075.94
2023-01-31T18:14:37.866Z,99077.63
2023-01-31T18:16:41.712Z,99080.53
2023-01-31T18:18:46.407Z,99071.34
2023-01-31T18:20:48.522Z,99073.00
2023-01-31T18:22:49.993Z,99070.28
2023-01-31T18:24:52.479Z,99068.41
2023-01-31T18:26:54.125Z,99062.13
2023-01-31T18:28:57.414Z,99069.84
2023-01-31T18:31:04.400Z,99069.84
2023-01-31T18:33:06.332Z,99082.56
2023-01-31T18:35:09.240Z,99084.50
2023-01-31T18:37:20.026Z,99062.13
2023-01-31T18:39:22.069Z,99067.56
2023-01-31T18:41:23.773Z,99079.25
2023-01-31T18:43:26.180Z,99076.34
2023-01-31T18:45:28.146Z,99087.19
2023-01-31T18:47:29.806Z,99084.25
2023-01-31T18:49:34.183Z,99068.78
2023-01-31T18:51:35.775Z,99072.56
2023-01-31T18:53:39.745Z,99068.78
2023-01-31T18:55:41.543Z,99068.78
2023-01-31T18:57:46.730Z,99072.34
2023-01-31T18:59:48.361Z,99061.69
2023-01-31T19:01:51.812Z,99070.69
2023-01-31T19:03:55.194Z,99066.28
2023-01-31T19:05:56.825Z,99068.78
2023-01-31T19:07:59.901Z,99069.41
2023-01-31T19:10:01.593Z,99082.13
2023-01-31T19:12:04.868Z,99076.72
2023-01-31T19:14:08.998Z,99078.38
2023-01-31T19:16:14.007Z,99083.81
2023-01-31T19:18:15.581Z,99096.31
2023-01-31T19:20:17.477Z,99094.44
2023-01-31T19:22:19.175Z,99098.00
2023-01-31T19:24:21.054Z,99099.66
2023-01-31T19:26:23.611Z,99089.59
2023-01-31T19:28:25.514Z,99080.41
2023-01-31T19:30:27.756Z,99077.72
2023-01-31T19:32:31.041Z,99082.09
2023-01-31T19:34:33.479Z,99082.91
2023-01-31T19:36:39.094Z,99082.09
2023-01-31T19:38:41.645Z,99083.75
2023-01-31T19:40:43.454Z,99078.31
2023-01-31T19:42:47.617Z,99083.75
2023-01-31T19:44:49.175Z,99081.03
2023-01-31T19:46:52.099Z,99085.44
2023-01-31T19:48:56.004Z,99085.22
2023-01-31T19:50:58.270Z,99087.09
2023-01-31T19:52:59.908Z,99081.66
2023-01-31T19:55:01.437Z,99086.03
2023-01-31T19:57:03.035Z,99091.47
2023-01-31T19:59:06.088Z,99090.19
2023-01-31T20:01:11.184Z,99083.94
2023-01-31T20:03:12.880Z,99076.38
2023-01-31T20:05:14.524Z,99072.03
2023-01-31T20:07:16.349Z,99084.78
2023-01-31T20:09:19.995Z,99080.16
2023-01-31T20:11:22.579Z,99079.34
2023-01-31T20:13:25.325Z,99084.53
2023-01-31T20:15:27.448Z,99081.81
2023-01-31T20:17:30.675Z,99074.50
2023-01-31T20:19:32.260Z,99079.94
2023-01-31T20:21:36.813Z,99087.03
2023-01-31T20:23:38.288Z,99079.09
2023-01-31T20:25:41.039Z,99079.94
2023-01-31T20:27:42.772Z,99081.63
2023-01-31T20:29:44.685Z,99066.97
2023-01-31T20:31:46.515Z,99061.53
2023-01-31T20:33:50.937Z,99074.06
2023-01-31T20:35:52.447Z,99067.59
2023-01-31T20:37:54.579Z,99068.41
2023-01-31T20:39:56.143Z,99082.81
2023-01-31T20:41:57.759Z,99079.25
2023-01-31T20:43:59.203Z,99072.78
2023-01-31T20:46:09.582Z,99081.78
2023-01-31T20:48:11.240Z,99079.06
2023-01-31T20:50:12.812Z,99077.19
2023-01-31T20:52:14.545Z,99081.53
2023-01-31T20:54:16.154Z,99072.34
2023-01-31T20:56:17.828Z,99073.19
2023-01-31T20:58:19.568Z,99065.03
2023-01-31T21:00:22.491Z,99084.84
2023-01-31T21:02:24.607Z,99079.41
2023-01-31T21:04:26.733Z,99102.81
2023-01-31T21:06:28.252Z,99098.22
2023-01-31T21:08:34.287Z,99113.69
2023-01-31T21:10:35.806Z,99108.25
2023-01-31T21:12:37.556Z,99100.72
2023-01-31T21:14:39.651Z,99099.66
2023-01-31T21:16:41.208Z,99101.53
2023-01-31T21:18:44.215Z,99096.94
2023-01-31T21:20:46.251Z,99090.69
2023-01-31T21:22:48.008Z,99087.72
2023-01-31T21:24:49.674Z,99094.00
2023-01-31T21:26:52.472Z,99101.31
2023-01-31T21:28:54.017Z,99095.06
2023-01-31T21:31:07.791Z,99101.31
2023-01-31T21:33:09.593Z,99101.09
2023-01-31T21:35:11.380Z,99088.56
2023-01-31T21:37:13.196Z,99090.22
2023-01-31T21:39:14.739Z,99090.22
2023-01-31T21:41:35.929Z,99085.63
2023-01-31T21:43:40.884Z,99080.81
2023-01-31T21:45:42.572Z,99076.41
2023-01-31T21:48:03.004Z,99080.81
2023-01-31T21:50:04.950Z,99085.63
2023-01-31T21:52:10.374Z,99106.28
2023-01-31T21:54:12.247Z,99097.09
2023-01-31T21:56:16.603Z,99102.53
2023-01-31T21:58:18.184Z,99089.78
2023-01-31T22:00:20.495Z,99075.38
2023-01-31T22:02:22.284Z,99079.72
2023-01-31T22:04:24.167Z,99082.44
2023-01-31T22:06:31.419Z,99083.28
2023-01-31T22:08:34.248Z,99082.44
2023-01-31T22:10:35.798Z,99074.28
2023-01-31T22:12:37.630Z,99072.22
2023-01-31T22:14:39.382Z,99072.41
2023-01-31T22:16:41.942Z,99057.19
2023-01-31T22:18:44.451Z,99057.19
2023-01-31T22:20:46.009Z,99064.50
2023-01-31T22:22:48.712Z,99068.84
2023-01-31T22:24:50.617Z,99058.00
2023-01-31T22:26:52.342Z,99060.50
2023-01-31T22:28:56.415Z,99054.22
2023-01-31T22:31:00.615Z,99061.34
2023-01-31T22:33:02.571Z,99054.00
2023-01-31T22:35:09.942Z,99058.38
2023-01-31T22:37:11.592Z,99050.47
2023-01-31T22:39:19.006Z,99042.31
2023-01-31T22:41:21.112Z,99047.75
2023-01-31T22:43:22.818Z,99043.13
2023-01-31T22:45:24.821Z,99039.59
2023-01-31T22:47:28.370Z,99047.75
2023-01-31T22:49:30.222Z,99040.41
2023-01-31T22:51:31.886Z,99043.97
2023-01-31T22:53:38.740Z,99053.78
2023-01-31T22:55:46.034Z,99043.97
2023-01-31T22:57:48.806Z,99050.22
2023-01-31T22:59:50.675Z,99052.13
2023-01-31T23:01:54.720Z,99053.78
2023-01-31T23:03:58.967Z,99039.13
2023-01-31T23:06:05.424Z,99032.88
2023-01-31T23:08:07.181Z,99035.59
2023-01-31T23:10:09.401Z,99031.22
2023-01-31T23:12:10.952Z,99025.53
2023-01-31T23:14:12.608Z,99022.03
2023-01-31T23:16:21.868Z,99020.34
2023-01-31T23:18:23.416Z,99022.03
2023-01-31T23:20:25.360Z,99017.38
2023-01-31T23:22:26.983Z,99020.09
2023-01-31T23:24:28.559Z,99019.06
2023-01-31T23:26:34.292Z,99020.34
2023-01-31T23:28:36.283Z,99026.63
2023-01-31T23:30:40.900Z,99016.59
2023-01-31T23:32:43.192Z,99016.78
2023-01-31T23:34:44.827Z,99010.31
2023-01-31T23:36:46.729Z,99016.59
2023-01-31T23:38:48.336Z,99016.34
2023-01-31T23:40:51.990Z,99024.50
2023-01-31T23:42:53.648Z,99017.19
2023-01-31T23:44:55.361Z,99019.06
2023-01-31T23:46:59.603Z,99019.91
2023-01-31T23:49:01.238Z,99019.91
2023-01-31T23:51:04.129Z,99019.06
2023-01-31T23:53:05.680Z,99016.09
2023-01-31T23:55:07.995Z,99015.31
2023-01-31T23:57:09.665Z,99012.78
2023-01-31T23:59:11.632Z,99006.53
